createdAt,value
2018-08-28T00:02:01.408Z,2.30
2018-08-28T00:04:30.645Z,2.37
2018-08-28T00:06:59.860Z,2.50
2018-08-28T00:09:29.080Z,2.93
2018-08-28T00:11:58.319Z,2.33
2018-08-28T00:14:27.544Z,2.23
2018-08-28T00:16:56.769Z,2.33
2018-08-28T00:19:26.336Z,2.90
2018-08-28T00:21:55.627Z,2.57
2018-08-28T00:24:24.837Z,2.60
2018-08-28T00:26:54.376Z,3.00
2018-08-28T00:29:23.924Z,2.30
2018-08-28T00:31:53.142Z,2.70
2018-08-28T00:34:22.556Z,3.27
2018-08-28T00:36:51.828Z,3.40
2018-08-28T00:39:21.058Z,2.83
2018-08-28T00:41:50.359Z,2.70
2018-08-28T00:44:19.563Z,2.90
2018-08-28T00:46:48.876Z,2.70
2018-08-28T00:49:18.153Z,3.27
2018-08-28T00:51:47.384Z,2.93
2018-08-28T00:54:16.631Z,3.20
2018-08-28T00:56:45.880Z,2.77
2018-08-28T00:59:15.077Z,2.87
2018-08-28T01:01:44.276Z,3.23
2018-08-28T01:04:13.762Z,2.67
2018-08-28T01:06:42.961Z,2.80
2018-08-28T01:09:12.172Z,3.30
2018-08-28T01:11:41.416Z,2.87
2018-08-28T01:14:10.625Z,2.87
2018-08-28T01:16:39.852Z,2.70
2018-08-28T01:19:09.092Z,2.30
2018-08-28T01:21:38.288Z,2.73
2018-08-28T01:24:07.488Z,2.70
2018-08-28T01:26:37.762Z,3.00
2018-08-28T01:29:06.960Z,3.07
2018-08-28T01:31:36.774Z,2.60
2018-08-28T01:34:06.080Z,2.83
2018-08-28T01:36:35.288Z,2.70
2018-08-28T01:39:05.349Z,2.90
2018-08-28T01:41:34.588Z,3.30
2018-08-28T01:44:03.797Z,3.73
2018-08-28T01:46:33.199Z,2.80
2018-08-28T01:49:03.004Z,2.90
2018-08-28T01:51:32.752Z,3.40
2018-08-28T01:54:01.945Z,3.60
2018-08-28T01:56:31.300Z,3.57
2018-08-28T01:59:00.520Z,3.43
2018-08-28T02:01:29.725Z,2.83
2018-08-28T02:03:58.953Z,3.10
2018-08-28T02:06:28.537Z,3.40
2018-08-28T02:08:58.108Z,2.90
2018-08-28T02:11:27.432Z,2.60
2018-08-28T02:13:56.643Z,3.80
2018-08-28T02:16:25.843Z,3.30
2018-08-28T02:18:55.111Z,3.53
2018-08-28T02:21:24.310Z,3.77
2018-08-28T02:23:53.541Z,3.57
2018-08-28T02:26:22.957Z,4.37
2018-08-28T02:28:52.155Z,3.70
2018-08-28T02:31:23.632Z,4.10
2018-08-28T02:33:54.111Z,4.03
2018-08-28T02:36:23.412Z,3.60
2018-08-28T02:38:52.624Z,4.23
2018-08-28T02:41:21.868Z,3.70
2018-08-28T02:43:51.089Z,4.17
2018-08-28T02:46:21.592Z,3.60
2018-08-28T02:48:51.052Z,4.20
2018-08-28T02:51:20.268Z,4.40
2018-08-28T02:53:49.492Z,4.13
2018-08-28T02:56:19.106Z,3.83
2018-08-28T02:58:48.403Z,5.30
2018-08-28T03:01:17.608Z,5.60
2018-08-28T03:03:47.088Z,5.13
2018-08-28T03:06:16.913Z,6.00
2018-08-28T03:08:46.155Z,5.83
2018-08-28T03:11:15.416Z,5.40
2018-08-28T03:13:44.828Z,4.73
2018-08-28T03:16:14.065Z,4.57
2018-08-28T03:18:43.692Z,4.53
2018-08-28T03:21:12.903Z,4.70
2018-08-28T03:23:42.115Z,4.60
2018-08-28T03:26:11.333Z,5.20
2018-08-28T03:28:40.546Z,4.53
2018-08-28T03:31:09.764Z,4.77
2018-08-28T03:33:39.000Z,6.23
2018-08-28T03:36:08.845Z,5.20
2018-08-28T03:38:38.041Z,5.93
2018-08-28T03:41:07.378Z,4.90
2018-08-28T03:43:36.592Z,4.40
2018-08-28T03:46:05.856Z,5.70
2018-08-28T03:48:35.080Z,5.13
2018-08-28T03:51:04.308Z,4.40
2018-08-28T03:53:33.532Z,5.50
2018-08-28T03:56:03.007Z,4.80
2018-08-28T03:58:32.228Z,5.67
2018-08-28T04:01:01.776Z,5.87
2018-08-28T04:03:31.431Z,6.77
2018-08-28T04:06:00.592Z,5.40
2018-08-28T04:08:29.856Z,4.50
2018-08-28T04:10:59.377Z,6.17
2018-08-28T04:13:28.718Z,6.17
2018-08-28T04:15:57.910Z,5.87
2018-08-28T04:18:27.140Z,5.40
2018-08-28T04:20:56.356Z,5.40
2018-08-28T04:23:25.564Z,5.20
2018-08-28T04:25:55.072Z,5.10
2018-08-28T04:28:24.480Z,5.00
2018-08-28T04:30:53.839Z,4.83
2018-08-28T04:33:23.123Z,5.53
2018-08-28T04:35:52.304Z,5.40
2018-08-28T04:38:21.744Z,5.53
2018-08-28T04:40:51.296Z,5.93
2018-08-28T04:43:20.516Z,5.20
2018-08-28T04:45:49.728Z,5.13
2018-08-28T04:48:19.120Z,5.10
2018-08-28T04:50:48.332Z,6.03
2018-08-28T04:53:17.539Z,5.70
2018-08-28T04:55:46.797Z,6.50
2018-08-28T04:58:16.017Z,6.27
2018-08-28T05:00:45.300Z,5.50
2018-08-28T05:03:14.468Z,5.97
2018-08-28T05:05:43.680Z,5.10
2018-08-28T05:08:12.918Z,5.70
2018-08-28T05:10:42.522Z,5.83
2018-08-28T05:13:11.731Z,5.53
2018-08-28T05:15:40.928Z,6.67
2018-08-28T05:18:10.164Z,6.30
2018-08-28T05:20:39.796Z,6.90
2018-08-28T05:23:09.024Z,6.30
2018-08-28T05:25:38.380Z,5.93
2018-08-28T05:28:07.634Z,9.53
2018-08-28T05:30:37.058Z,6.10
2018-08-28T05:33:06.536Z,6.73
2018-08-28T05:35:35.773Z,6.67
2018-08-28T05:38:05.590Z,6.90
2018-08-28T05:40:35.467Z,6.97
2018-08-28T05:43:04.684Z,6.20
2018-08-28T05:45:33.897Z,5.60
2018-08-28T05:48:03.144Z,6.77
2018-08-28T05:50:32.340Z,5.53
2018-08-28T05:53:01.568Z,5.77
2018-08-28T05:55:31.179Z,6.60
2018-08-28T05:58:00.582Z,6.70
2018-08-28T06:00:29.772Z,6.43
2018-08-28T06:02:59.091Z,5.53
2018-08-28T06:05:28.273Z,5.90
2018-08-28T06:07:57.479Z,6.13
2018-08-28T06:10:26.713Z,5.47
2018-08-28T06:12:58.268Z,5.33
2018-08-28T06:15:27.664Z,5.83
2018-08-28T06:17:56.900Z,5.23
2018-08-28T06:20:26.152Z,6.20
2018-08-28T06:22:55.429Z,5.70
2018-08-28T06:25:24.606Z,6.00
2018-08-28T06:27:53.817Z,6.23
2018-08-28T06:30:23.150Z,5.13
2018-08-28T06:32:52.588Z,5.70
2018-08-28T06:35:21.940Z,5.70
2018-08-28T06:37:51.224Z,5.13
2018-08-28T06:40:20.468Z,6.33
2018-08-28T06:42:50.081Z,6.70
2018-08-28T06:45:19.315Z,6.30
2018-08-28T06:47:49.012Z,5.80
2018-08-28T06:50:18.296Z,6.27
2018-08-28T06:52:47.524Z,5.90
2018-08-28T06:55:16.753Z,5.70
2018-08-28T06:57:45.976Z,5.83
2018-08-28T07:00:15.748Z,5.70
2018-08-28T07:02:44.958Z,6.73
2018-08-28T07:05:14.236Z,6.00
2018-08-28T07:07:43.608Z,6.67
2018-08-28T07:10:13.069Z,5.13
2018-08-28T07:12:42.244Z,5.63
2018-08-28T07:15:11.510Z,6.30
2018-08-28T07:17:40.721Z,5.67
2018-08-28T07:20:09.984Z,6.20
2018-08-28T07:22:39.456Z,5.57
2018-08-28T07:25:08.877Z,6.60
2018-08-28T07:27:38.113Z,5.90
2018-08-28T07:30:07.713Z,5.93
2018-08-28T07:32:36.945Z,8.00
2018-08-28T07:35:06.433Z,6.07
2018-08-28T07:37:35.912Z,5.93
2018-08-28T07:40:05.643Z,5.23
2018-08-28T07:42:34.871Z,5.70
2018-08-28T07:45:05.021Z,5.27
2018-08-28T07:47:34.678Z,6.63
2018-08-28T07:50:03.947Z,6.10
2018-08-28T07:52:33.195Z,6.50
2018-08-28T07:55:02.434Z,5.37
2018-08-28T07:57:31.660Z,6.10
2018-08-28T08:00:00.993Z,5.07
2018-08-28T08:02:30.174Z,6.20
2018-08-28T08:04:59.369Z,5.23
2018-08-28T08:07:28.833Z,5.97
2018-08-28T08:09:58.034Z,6.17
2018-08-28T08:12:27.249Z,5.33
2018-08-28T08:14:56.460Z,5.53
2018-08-28T08:17:25.689Z,4.80
2018-08-28T08:19:54.897Z,6.43
2018-08-28T08:22:24.236Z,6.00
2018-08-28T08:24:53.489Z,5.10
2018-08-28T08:27:22.820Z,5.70
2018-08-28T08:29:52.115Z,6.30
2018-08-28T08:32:21.328Z,5.63
2018-08-28T08:34:50.553Z,5.80
2018-08-28T08:37:19.835Z,5.83
2018-08-28T08:39:49.068Z,5.10
2018-08-28T08:42:18.300Z,5.60
2018-08-28T08:44:47.526Z,5.17
2018-08-28T08:47:17.003Z,5.33
2018-08-28T08:49:46.208Z,5.90
2018-08-28T08:52:15.829Z,5.20
2018-08-28T08:54:45.072Z,5.57
2018-08-28T08:57:14.249Z,5.27
2018-08-28T08:59:43.495Z,5.20
2018-08-28T09:02:12.729Z,5.10
2018-08-28T09:04:41.938Z,5.23
2018-08-28T09:07:11.171Z,5.50
2018-08-28T09:09:40.426Z,5.47
2018-08-28T09:12:09.671Z,5.80
2018-08-28T09:14:39.225Z,6.10
2018-08-28T09:17:08.452Z,4.60
2018-08-28T09:19:37.688Z,5.70
2018-08-28T09:22:06.944Z,5.23
2018-08-28T09:24:36.296Z,5.00
2018-08-28T09:27:05.672Z,5.30
2018-08-28T09:29:34.938Z,5.60
2018-08-28T09:32:04.152Z,4.80
2018-08-28T09:34:33.356Z,5.07
2018-08-28T09:37:02.933Z,4.70
2018-08-28T09:39:32.193Z,4.67
2018-08-28T09:42:01.392Z,5.40
2018-08-28T09:44:30.728Z,5.83
2018-08-28T09:46:59.938Z,4.37
2018-08-28T09:49:29.508Z,4.90
2018-08-28T09:51:58.759Z,4.57
2018-08-28T09:54:27.967Z,6.73
2018-08-28T09:56:57.308Z,5.03
2018-08-28T09:59:26.949Z,4.87
2018-08-28T10:01:56.149Z,5.10
2018-08-28T10:04:25.344Z,5.07
2018-08-28T10:06:54.596Z,5.03
2018-08-28T10:09:29.120Z,6.33
2018-08-28T10:11:58.353Z,4.83
2018-08-28T10:14:27.564Z,5.53
2018-08-28T10:16:56.784Z,5.60
2018-08-28T10:19:26.264Z,5.00
2018-08-28T10:21:55.645Z,4.43
2018-08-28T10:24:24.845Z,4.80
2018-08-28T10:26:54.256Z,4.93
2018-08-28T10:29:23.454Z,4.30
2018-08-28T10:31:52.653Z,5.43
2018-08-28T10:34:21.877Z,4.97
2018-08-28T10:36:51.183Z,5.50
2018-08-28T10:39:20.380Z,5.00
2018-08-28T10:41:49.984Z,4.73
2018-08-28T10:44:19.182Z,5.20
2018-08-28T10:46:48.558Z,4.53
2018-08-28T10:49:18.000Z,4.60
2018-08-28T10:51:47.684Z,4.10
2018-08-28T10:54:16.892Z,5.23
2018-08-28T10:56:46.807Z,5.57
2018-08-28T10:59:16.011Z,5.30
2018-08-28T11:01:45.222Z,5.23
2018-08-28T11:04:14.537Z,4.93
2018-08-28T11:06:43.966Z,5.87
2018-08-28T11:09:13.160Z,4.30
2018-08-28T11:11:42.712Z,5.30
2018-08-28T11:14:11.955Z,4.63
2018-08-28T11:16:41.164Z,4.60
2018-08-28T11:19:10.381Z,5.40
2018-08-28T11:21:39.585Z,5.20
2018-08-28T11:24:08.917Z,5.17
2018-08-28T11:26:38.616Z,4.80
2018-08-28T11:29:07.845Z,5.07
2018-08-28T11:31:37.054Z,4.60
2018-08-28T11:34:06.418Z,4.53
2018-08-28T11:36:35.940Z,4.50
2018-08-28T11:39:05.883Z,5.10
2018-08-28T11:41:35.113Z,4.50
2018-08-28T11:44:04.352Z,5.07
2018-08-28T11:46:33.821Z,4.87
2018-08-28T11:49:03.297Z,4.67
2018-08-28T11:51:32.636Z,4.90
2018-08-28T11:54:02.374Z,4.60
2018-08-28T11:56:31.629Z,4.33
2018-08-28T11:59:00.853Z,4.70
2018-08-28T12:01:30.059Z,4.50
2018-08-28T12:03:59.289Z,4.50
2018-08-28T12:06:28.520Z,4.60
2018-08-28T12:08:57.729Z,4.73
2018-08-28T12:11:27.005Z,4.30
2018-08-28T12:13:56.209Z,4.70
2018-08-28T12:16:25.408Z,3.93
2018-08-28T12:18:54.648Z,4.40
2018-08-28T12:21:23.854Z,4.57
2018-08-28T12:23:53.068Z,4.17
2018-08-28T12:26:24.393Z,3.80
2018-08-28T12:28:53.744Z,4.33
2018-08-28T12:31:22.932Z,4.10
2018-08-28T12:33:52.257Z,4.20
2018-08-28T12:36:22.816Z,5.03
2018-08-28T12:38:52.088Z,4.13
2018-08-28T12:41:21.449Z,4.70
2018-08-28T12:43:50.686Z,4.13
2018-08-28T12:46:19.889Z,4.40
2018-08-28T12:48:49.112Z,4.60
2018-08-28T12:51:18.439Z,3.80
2018-08-28T12:53:47.900Z,4.07
2018-08-28T12:56:17.633Z,4.30
2018-08-28T12:58:46.848Z,4.07
2018-08-28T13:01:16.060Z,4.20
2018-08-28T13:03:45.292Z,4.70
2018-08-28T13:06:14.547Z,3.93
2018-08-28T13:08:43.769Z,4.03
2018-08-28T13:11:13.001Z,3.30
2018-08-28T13:13:42.221Z,3.90
2018-08-28T13:16:11.554Z,3.60
2018-08-28T13:18:41.165Z,4.30
2018-08-28T13:21:10.362Z,4.40
2018-08-28T13:23:39.561Z,4.03
2018-08-28T13:26:09.051Z,3.70
2018-08-28T13:28:38.062Z,4.03
2018-08-28T13:31:08.331Z,4.17
2018-08-28T13:33:38.965Z,4.47
2018-08-28T13:36:09.404Z,4.00
2018-08-28T13:38:38.683Z,4.47
2018-08-28T13:41:09.010Z,4.30
2018-08-28T13:43:38.222Z,4.37
2018-08-28T13:46:07.470Z,3.70
2018-08-28T13:48:36.742Z,4.83
2018-08-28T13:51:06.219Z,4.20
2018-08-28T13:53:35.505Z,4.60
2018-08-28T13:56:04.724Z,4.50
2018-08-28T13:58:38.300Z,4.80
2018-08-28T14:01:07.857Z,4.40
2018-08-28T14:03:37.216Z,4.60
2018-08-28T14:06:06.560Z,4.50
2018-08-28T14:08:35.840Z,4.67
2018-08-28T14:11:05.402Z,4.07
2018-08-28T14:13:34.589Z,3.77
2018-08-28T14:16:04.092Z,4.40
2018-08-28T14:18:33.294Z,4.10
2018-08-28T14:21:02.698Z,4.67
2018-08-28T14:23:32.037Z,4.20
2018-08-28T14:26:01.604Z,4.77
2018-08-28T14:28:30.859Z,4.57
2018-08-28T14:31:00.233Z,4.27
2018-08-28T14:33:29.448Z,3.97
2018-08-28T14:35:58.764Z,3.70
2018-08-28T14:38:28.012Z,4.23
2018-08-28T14:40:57.232Z,4.30
2018-08-28T14:43:26.443Z,4.63
2018-08-28T14:45:56.236Z,3.90
2018-08-28T14:48:25.622Z,4.83
2018-08-28T14:50:54.835Z,4.57
2018-08-28T14:53:24.053Z,4.77
2018-08-28T14:55:53.269Z,4.57
2018-08-28T14:58:22.473Z,5.13
2018-08-28T15:00:53.005Z,4.43
2018-08-28T15:03:22.205Z,4.40
2018-08-28T15:05:51.584Z,4.40
2018-08-28T15:08:23.409Z,4.13
2018-08-28T15:10:52.635Z,4.20
2018-08-28T15:13:21.976Z,4.00
2018-08-28T15:15:51.314Z,4.03
2018-08-28T15:18:20.502Z,4.90
2018-08-28T15:20:49.728Z,4.00
2018-08-28T15:23:19.152Z,3.93
2018-08-28T15:25:48.469Z,4.53
2018-08-28T15:28:17.740Z,4.50
2018-08-28T15:30:47.327Z,4.67
2018-08-28T15:33:16.658Z,4.40
2018-08-28T15:35:45.944Z,4.73
2018-08-28T15:38:15.188Z,8.30
2018-08-28T15:40:44.608Z,5.93
2018-08-28T15:43:15.116Z,4.50
2018-08-28T15:45:44.418Z,4.30
2018-08-28T15:48:13.696Z,4.33
2018-08-28T15:50:42.896Z,4.60
2018-08-28T15:53:12.208Z,4.00
2018-08-28T15:55:41.829Z,4.33
2018-08-28T15:58:11.229Z,3.63
2018-08-28T16:00:40.856Z,4.77
2018-08-28T16:03:10.090Z,4.40
2018-08-28T16:05:39.317Z,4.20
2018-08-28T16:08:08.806Z,4.60
2018-08-28T16:10:38.074Z,4.63
2018-08-28T16:13:11.918Z,4.73
2018-08-28T16:15:41.152Z,4.60
2018-08-28T16:18:10.450Z,4.27
2018-08-28T16:20:39.884Z,4.47
2018-08-28T16:23:13.292Z,4.70
2018-08-28T16:25:42.595Z,4.53
2018-08-28T16:28:11.800Z,4.23
2018-08-28T16:30:42.245Z,4.40
2018-08-28T16:33:11.553Z,4.67
2018-08-28T16:35:40.796Z,4.37
2018-08-28T16:38:09.988Z,4.93
2018-08-28T16:40:39.221Z,4.17
2018-08-28T16:43:08.473Z,4.83
2018-08-28T16:45:38.975Z,4.30
2018-08-28T16:48:08.240Z,4.53
2018-08-28T16:50:37.497Z,4.13
2018-08-28T16:53:06.700Z,5.23
2018-08-28T16:55:36.203Z,4.10
2018-08-28T16:58:05.485Z,5.47
2018-08-28T17:00:34.764Z,4.10
2018-08-28T17:03:04.759Z,4.30
2018-08-28T17:05:34.922Z,4.70
2018-08-28T17:08:04.125Z,5.10
2018-08-28T17:10:33.419Z,4.40
2018-08-28T17:13:02.619Z,4.30
2018-08-28T17:15:31.925Z,4.97
2018-08-28T17:18:01.314Z,4.50
2018-08-28T17:20:30.540Z,4.77
2018-08-28T17:23:00.936Z,4.53
2018-08-28T17:25:30.332Z,4.33
2018-08-28T17:27:59.692Z,3.90
2018-08-28T17:30:28.940Z,4.63
2018-08-28T17:32:58.219Z,4.73
2018-08-28T17:35:27.480Z,4.50
2018-08-28T17:37:56.672Z,4.80
2018-08-28T17:40:25.944Z,4.87
2018-08-28T17:42:55.153Z,4.60
2018-08-28T17:45:24.404Z,5.67
2018-08-28T17:47:53.709Z,4.57
2018-08-28T17:50:22.892Z,4.60
2018-08-28T17:52:52.120Z,4.90
2018-08-28T17:55:21.361Z,4.60
2018-08-28T17:57:50.603Z,5.43
2018-08-28T18:00:19.864Z,5.13
2018-08-28T18:02:49.184Z,5.53
2018-08-28T18:05:18.773Z,4.83
2018-08-28T18:07:48.016Z,5.90
2018-08-28T18:10:17.252Z,4.77
2018-08-28T18:12:46.465Z,4.70
2018-08-28T18:15:15.961Z,5.80
2018-08-28T18:17:45.195Z,5.43
2018-08-28T18:20:14.405Z,5.90
2018-08-28T18:22:43.613Z,6.03
2018-08-28T18:25:13.229Z,5.57
2018-08-28T18:27:42.463Z,6.27
2018-08-28T18:30:11.682Z,5.73
2018-08-28T18:32:40.947Z,6.00
2018-08-28T18:35:11.288Z,5.20
2018-08-28T18:37:40.488Z,5.50
2018-08-28T18:40:09.797Z,5.30
2018-08-28T18:42:39.004Z,5.50
2018-08-28T18:45:08.448Z,5.37
2018-08-28T18:47:38.160Z,4.80
2018-08-28T18:50:09.606Z,5.50
2018-08-28T18:52:38.897Z,6.00
2018-08-28T18:55:08.108Z,6.33
2018-08-28T18:57:37.315Z,5.80
2018-08-28T19:00:06.632Z,6.50
2018-08-28T19:02:35.848Z,6.10
2018-08-28T19:05:05.076Z,5.70
2018-08-28T19:07:35.236Z,6.27
2018-08-28T19:10:04.664Z,6.60
2018-08-28T19:12:33.940Z,6.63
2018-08-28T19:15:03.216Z,6.13
2018-08-28T19:17:32.436Z,6.20
2018-08-28T19:20:01.652Z,6.50
2018-08-28T19:22:30.900Z,6.40
2018-08-28T19:25:00.112Z,7.00
2018-08-28T19:27:29.332Z,5.73
2018-08-28T19:29:58.636Z,7.30
2018-08-28T19:32:27.859Z,6.40
2018-08-28T19:34:57.088Z,5.47
2018-08-28T19:37:27.232Z,6.63
2018-08-28T19:39:56.544Z,6.10
2018-08-28T19:42:25.772Z,7.27
2018-08-28T19:44:55.024Z,6.07
2018-08-28T19:47:24.288Z,7.10
2018-08-28T19:49:53.766Z,5.47
2018-08-28T19:52:23.073Z,5.83
2018-08-28T19:54:52.313Z,6.40
2018-08-28T19:57:21.526Z,6.30
2018-08-28T19:59:50.742Z,6.20
2018-08-28T20:02:20.296Z,5.87
2018-08-28T20:04:49.556Z,7.13
2018-08-28T20:07:18.789Z,7.40
2018-08-28T20:09:48.420Z,6.03
2018-08-28T20:12:17.633Z,6.83
2018-08-28T20:14:47.064Z,6.57
2018-08-28T20:17:16.291Z,6.43
2018-08-28T20:19:45.488Z,6.97
2018-08-28T20:22:14.704Z,6.37
2018-08-28T20:24:43.908Z,6.67
2018-08-28T20:27:13.130Z,6.13
2018-08-28T20:29:42.404Z,6.90
2018-08-28T20:32:11.602Z,7.27
2018-08-28T20:34:40.823Z,6.70
2018-08-28T20:37:10.401Z,7.17
2018-08-28T20:39:39.558Z,6.20
2018-08-28T20:42:08.776Z,6.47
2018-08-28T20:44:38.000Z,6.77
2018-08-28T20:47:07.234Z,6.33
2018-08-28T20:49:36.441Z,6.57
2018-08-28T20:52:06.085Z,7.40
2018-08-28T20:54:35.289Z,7.37
2018-08-28T20:57:04.534Z,6.83
2018-08-28T20:59:33.876Z,6.90
2018-08-28T21:02:03.184Z,7.03
2018-08-28T21:04:32.438Z,7.27
2018-08-28T21:07:01.684Z,7.40
2018-08-28T21:09:30.888Z,7.20
2018-08-28T21:12:00.492Z,7.30
2018-08-28T21:14:29.784Z,6.93
2018-08-28T21:16:59.021Z,7.77
2018-08-28T21:19:28.220Z,7.00
2018-08-28T21:21:57.512Z,6.73
2018-08-28T21:24:26.713Z,7.97
2018-08-28T21:26:56.113Z,7.23
2018-08-28T21:29:25.406Z,7.30
2018-08-28T21:31:54.567Z,7.03
2018-08-28T21:34:23.788Z,7.17
2018-08-28T21:36:53.020Z,6.10
2018-08-28T21:39:22.232Z,7.13
2018-08-28T21:41:51.442Z,7.70
2018-08-28T21:44:21.008Z,8.00
2018-08-28T21:46:50.216Z,7.00
2018-08-28T21:49:19.453Z,6.90
2018-08-28T21:51:48.693Z,6.23
2018-08-28T21:54:17.892Z,6.90
2018-08-28T21:56:47.104Z,6.80
2018-08-28T21:59:16.328Z,7.60
2018-08-28T22:01:45.559Z,7.07
2018-08-28T22:04:14.761Z,7.63
2018-08-28T22:06:49.747Z,7.30
2018-08-28T22:09:18.915Z,7.20
2018-08-28T22:11:48.123Z,7.90
2018-08-28T22:14:17.809Z,6.57
2018-08-28T22:16:47.033Z,6.53
2018-08-28T22:19:16.376Z,7.20
2018-08-28T22:21:45.656Z,6.87
2018-08-28T22:24:14.940Z,6.93
2018-08-28T22:26:44.143Z,7.43
2018-08-28T22:29:13.577Z,7.70
2018-08-28T22:31:42.795Z,6.90
2018-08-28T22:34:11.992Z,8.10
2018-08-28T22:36:41.232Z,7.47
2018-08-28T22:39:10.464Z,7.30
2018-08-28T22:41:39.808Z,6.77
2018-08-28T22:44:09.297Z,7.30
2018-08-28T22:46:38.521Z,7.97
2018-08-28T22:49:07.812Z,7.93
2018-08-28T22:51:37.121Z,7.80
2018-08-28T22:54:06.391Z,6.50
2018-08-28T22:56:35.572Z,7.87
2018-08-28T22:59:05.701Z,6.80
2018-08-28T23:01:34.928Z,7.00
2018-08-28T23:04:04.220Z,6.73
2018-08-28T23:06:33.449Z,8.00
2018-08-28T23:09:02.716Z,7.47
2018-08-28T23:11:31.928Z,7.77
2018-08-28T23:14:01.232Z,7.57
2018-08-28T23:16:30.574Z,7.03
2018-08-28T23:18:59.852Z,7.43
2018-08-28T23:21:31.348Z,7.57
2018-08-28T23:24:00.576Z,8.73
2018-08-28T23:26:29.774Z,7.47
2018-08-28T23:28:58.995Z,7.50
2018-08-28T23:31:28.220Z,7.90
2018-08-28T23:33:57.420Z,7.23
2018-08-28T23:36:26.744Z,7.20
2018-08-28T23:38:55.952Z,7.50
2018-08-28T23:41:25.660Z,7.80
2018-08-28T23:43:54.928Z,8.60
2018-08-28T23:46:32.756Z,8.27
2018-08-28T23:49:02.172Z,8.87
2018-08-28T23:51:31.393Z,8.53
2018-08-28T23:54:06.617Z,7.43
2018-08-28T23:56:36.016Z,7.77
2018-08-28T23:59:05.300Z,7.93
